Time;durP1;ratioP1;P1;durP2;ratioP2;P2;SDS_P1;SDS_P2;PMS_P1;PMS_P2;Temp;Humidity;BMP_temperature;BMP_pressure;BME280_temperature;BME280_humidity;BME280_pressure;Samples;Min_cycle;Max_cycle;Signal;HPM_P1;HPM_P2
2022/03/18 00:00:58;;;;;;;18.47;6.53;;;;;;;13.07;73.47;103754.41;5080537;28;20100;-49
2022/03/18 00:03:23;;;;;;;12.93;7.43;;;;;;;13.13;72.97;103753.81;5089519;28;20037;-47
2022/03/18 00:05:49;;;;;;;18.10;7.20;;;;;;;13.04;73.19;103753.69;5078629;28;20033;-50
2022/03/18 00:08:14;;;;;;;20.45;7.13;;;;;;;13.04;73.65;103756.38;5089860;28;20155;-49
2022/03/18 00:10:40;;;;;;;23.17;7.65;;;;;;;12.90;76.18;103754.97;5084646;28;20037;-46
2022/03/18 00:13:05;;;;;;;18.37;6.90;;;;;;;12.88;76.82;103756.06;5082695;28;20036;-49
2022/03/18 00:15:32;;;;;;;13.82;6.93;;;;;;;12.96;75.29;103761.63;5091574;28;20032;-49
2022/03/18 00:17:57;;;;;;;16.15;7.05;;;;;;;12.87;75.74;103765.97;5078011;28;20043;-51
2022/03/18 00:20:23;;;;;;;18.60;7.60;;;;;;;12.81;76.02;103766.53;5088484;28;20029;-47
2022/03/18 00:22:49;;;;;;;20.90;7.97;;;;;;;12.75;76.52;103767.06;5085229;28;20033;-47
2022/03/18 00:25:16;;;;;;;17.08;7.10;;;;;;;12.76;76.59;103769.63;5081240;28;20043;-47
2022/03/18 00:27:43;;;;;;;21.58;8.35;;;;;;;12.62;76.64;103773.56;5091514;28;20039;-48
2022/03/18 00:30:14;;;;;;;21.20;9.02;;;;;;;12.64;75.77;103776.09;5078329;28;20025;-49
2022/03/18 00:32:40;;;;;;;22.45;9.15;;;;;;;12.57;76.10;103781.19;5084087;28;20096;-49
2022/03/18 00:35:08;;;;;;;19.50;9.55;;;;;;;12.62;75.40;103783.44;5087709;28;20040;-50
2022/03/18 00:37:40;;;;;;;25.63;10.43;;;;;;;12.62;74.64;103788.81;5083335;28;20029;-48
2022/03/18 00:40:07;;;;;;;27.58;11.73;;;;;;;12.37;74.15;103788.31;5069426;28;20090;-49
2022/03/18 00:42:32;;;;;;;;;;;;;;;12.30;75.08;103792.50;5075788;28;20032;-52
2022/03/18 00:44:59;;;;;;;25.60;10.27;;;;;;;12.31;73.90;103799.59;5075199;28;20331;-49
2022/03/18 00:52:53;;;;;;;30.33;10.45;;;;;;;12.51;68.19;103799.66;5075262;28;20036;-48
2022/03/18 00:55:18;;;;;;;17.93;8.87;;;;;;;12.52;67.32;103810.25;5075704;28;20096;-46
2022/03/18 00:57:44;;;;;;;21.33;9.13;;;;;;;12.39;67.14;103806.97;5076627;28;20033;-47
2022/03/18 01:00:10;;;;;;;22.00;9.03;;;;;;;12.37;66.69;103814.31;5076563;28;20029;-52
2022/03/18 01:02:36;;;;;;;26.35;10.48;;;;;;;12.33;65.99;103801.13;5072938;28;20071;-49
2022/03/18 01:05:02;;;;;;;24.03;10.63;;;;;;;12.26;65.87;103801.81;5075682;28;20040;-48
2022/03/18 01:07:28;;;;;;;21.50;6.93;;;;;;;12.17;66.12;103808.84;5075753;28;20093;-53
2022/03/18 01:09:54;;;;;;;22.85;8.45;;;;;;;12.22;65.25;103806.59;5077666;28;20029;-49
2022/03/18 01:12:21;;;;;;;29.10;8.82;;;;;;;12.23;64.17;103802.94;5075469;28;20029;-50
2022/03/18 01:14:46;;;;;;;20.95;9.50;;;;;;;12.23;64.29;103796.72;5075495;28;20063;-50
2022/03/18 01:17:11;;;;;;;26.50;9.27;;;;;;;12.24;64.09;103791.22;5075204;28;20051;-48
2022/03/18 01:19:37;;;;;;;20.97;8.80;;;;;;;12.26;64.03;103793.78;5075183;28;20044;-50
2022/03/18 01:22:02;;;;;;;20.70;7.93;;;;;;;12.33;62.96;103793.06;5075555;28;20052;-47
2022/03/18 01:24:28;;;;;;;23.00;9.68;;;;;;;12.21;63.42;103793.31;5075273;28;20124;-49
2022/03/18 01:26:54;;;;;;;23.10;7.83;;;;;;;12.12;64.06;103798.50;5075409;28;20040;-49
2022/03/18 01:29:20;;;;;;;18.27;8.45;;;;;;;12.06;64.70;103793.66;5075110;28;20040;-48
2022/03/18 01:31:45;;;;;;;22.60;7.73;;;;;;;11.97;67.96;103792.59;5076300;28;20044;-45
2022/03/18 01:34:11;;;;;;;19.52;9.23;;;;;;;12.05;71.79;103802.69;5076152;28;20051;-48
2022/03/18 01:36:36;;;;;;;20.13;8.73;;;;;;;12.11;73.48;103802.16;5075147;28;20055;-50
2022/03/18 01:39:03;;;;;;;26.37;9.10;;;;;;;12.17;74.50;103800.78;5075072;28;20028;-47
2022/03/18 01:41:28;;;;;;;20.42;9.07;;;;;;;11.99;74.41;103806.72;5072951;28;20505;-48
2022/03/18 01:43:54;;;;;;;21.93;8.17;;;;;;;11.96;73.98;103804.31;5090717;28;20043;-49
2022/03/18 01:46:21;;;;;;;20.38;8.95;;;;;;;12.02;73.29;103800.28;5079920;28;20032;-48
2022/03/18 01:48:48;;;;;;;18.02;8.68;;;;;;;11.99;73.19;103804.03;5084564;28;20029;-48
2022/03/18 01:51:17;;;;;;;27.13;8.73;;;;;;;11.88;74.30;103812.19;5087535;28;20070;-49
2022/03/18 01:53:44;;;;;;;15.90;7.68;;;;;;;11.96;72.81;103798.09;5079608;28;20032;-47
2022/03/18 01:56:11;;;;;;;23.95;7.63;;;;;;;12.01;71.78;103796.75;5093742;28;20056;-50
2022/03/18 01:58:36;;;;;;;21.38;8.18;;;;;;;12.00;71.35;103796.84;5085903;28;20036;-49
2022/03/18 02:01:07;;;;;;;18.70;7.88;;;;;;;11.90;71.83;103800.31;5085641;28;20037;-48
2022/03/18 02:03:33;;;;;;;20.63;8.82;;;;;;;11.78;75.27;103796.00;5093619;28;20032;-47
2022/03/18 02:05:59;;;;;;;19.90;8.05;;;;;;;11.91;76.44;103796.66;5081253;28;20040;-51
2022/03/18 02:08:25;;;;;;;17.93;7.70;;;;;;;11.96;79.26;103814.16;5091618;28;20037;-51
2022/03/18 02:10:51;;;;;;;16.90;8.10;;;;;;;11.94;86.92;103821.50;5077395;28;20032;-48
2022/03/18 02:13:18;;;;;;;23.27;7.72;;;;;;;11.86;90.78;103820.34;5091056;28;20048;-51
2022/03/18 02:15:44;;;;;;;14.98;7.10;;;;;;;11.88;94.80;103823.72;5080957;28;20045;-50
2022/03/18 02:18:09;;;;;;;15.57;7.57;;;;;;;11.93;97.22;103826.03;5093429;28;20048;-51
2022/03/18 02:20:35;;;;;;;16.15;7.30;;;;;;;11.88;99.64;103826.41;5084899;28;20059;-51
2022/03/18 02:23:03;;;;;;;16.03;8.53;;;;;;;11.82;100.00;103824.25;5086255;28;20044;-52
2022/03/18 02:25:29;;;;;;;16.38;7.82;;;;;;;11.87;100.00;103838.13;5092550;28;20273;-50
2022/03/18 02:27:57;;;;;;;18.33;6.72;;;;;;;11.96;99.59;103830.25;5080961;28;20033;-51
2022/03/18 02:30:23;;;;;;;18.65;8.45;;;;;;;11.87;100.00;103831.91;5091513;28;20040;-50
2022/03/18 02:32:49;;;;;;;14.43;7.05;;;;;;;11.90;100.00;103832.50;5087086;28;20052;-52
2022/03/18 02:35:14;;;;;;;16.10;7.87;;;;;;;11.91;99.40;103828.00;5083993;28;20048;-51
2022/03/18 02:37:40;;;;;;;15.57;7.17;;;;;;;11.92;98.80;103835.06;5093535;28;20039;-50
2022/03/18 02:40:06;;;;;;;22.87;7.50;;;;;;;11.85;99.92;103836.53;5080384;28;20055;-53
2022/03/18 02:42:32;;;;;;;20.33;8.55;;;;;;;11.93;98.65;103834.06;5090114;28;20037;-50
2022/03/18 02:44:57;;;;;;;23.07;8.27;;;;;;;11.91;97.70;103828.84;5087655;28;20048;-54
2022/03/18 02:47:24;;;;;;;21.33;6.93;;;;;;;11.82;98.36;103837.66;5082939;28;20035;-50
2022/03/18 02:49:50;;;;;;;24.02;7.65;;;;;;;11.75;98.59;103844.50;5092707;28;20265;-49
2022/03/18 02:52:15;;;;;;;16.33;7.67;;;;;;;11.74;98.30;103826.72;5081589;28;20037;-49
2022/03/18 02:54:41;;;;;;;17.10;7.30;;;;;;;11.78;98.08;103833.56;5088583;28;20092;-47
2022/03/18 02:57:07;;;;;;;16.23;6.63;;;;;;;11.93;96.13;103834.06;5088641;28;20276;-50
2022/03/18 02:59:33;;;;;;;19.10;7.68;;;;;;;11.79;95.88;103835.25;5081297;28;20043;-52
2022/03/18 03:01:59;;;;;;;18.02;7.40;;;;;;;11.75;96.60;103826.59;5093174;28;20036;-51
2022/03/18 03:04:24;;;;;;;16.83;7.60;;;;;;;11.69;97.06;103834.31;5082867;28;20035;-51
2022/03/18 03:09:34;;;;;;;16.17;6.43;;;;;;;11.61;97.53;103841.19;5076744;28;20037;-48
2022/03/18 03:11:59;;;;;;;18.10;7.00;;;;;;;11.72;95.64;103847.44;5093100;28;20071;-51
2022/03/18 03:14:25;;;;;;;14.68;6.38;;;;;;;11.75;94.26;103848.06;5082550;28;20074;-52
2022/03/18 03:16:50;;;;;;;14.63;6.73;;;;;;;11.62;95.77;103850.06;5086978;28;20040;-49
2022/03/18 03:19:16;;;;;;;17.47;6.43;;;;;;;11.60;95.50;103863.59;5089519;28;20037;-48
2022/03/18 03:21:41;;;;;;;20.37;7.40;;;;;;;11.61;94.64;103861.75;5078547;28;20290;-52
2022/03/18 03:24:08;;;;;;;19.87;6.97;;;;;;;11.67;93.29;103863.09;5092995;28;20024;-48
2022/03/18 03:26:33;;;;;;;;;;;;;;;11.64;92.17;103857.97;5083710;28;20104;-51
2022/03/18 03:28:59;;;;;;;16.23;6.47;;;;;;;11.60;92.06;103850.19;5085513;28;19913;-50
2022/03/18 03:31:24;;;;;;;19.97;6.67;;;;;;;11.65;91.25;103854.31;5090443;28;20040;-48
2022/03/18 03:33:50;;;;;;;12.57;6.40;;;;;;;11.56;91.88;103867.53;5079404;28;20037;-51
2022/03/18 03:36:16;;;;;;;15.68;7.70;;;;;;;11.53;92.54;103875.78;5091401;28;20060;-47
2022/03/18 03:38:41;;;;;;;14.20;7.70;;;;;;;11.48;92.19;103886.06;5084090;28;20036;-48
2022/03/18 03:41:07;;;;;;;14.10;7.60;;;;;;;11.35;92.72;103880.84;5084312;28;20119;-49
2022/03/18 03:43:32;;;;;;;13.63;7.43;;;;;;;11.36;93.21;103885.22;5091337;28;20280;-50
2022/03/18 03:45:58;;;;;;;15.63;9.07;;;;;;;11.31;92.47;103890.13;5079165;28;20100;-50
2022/03/18 03:48:23;;;;;;;23.57;9.23;;;;;;;11.36;91.77;103892.44;5090237;28;20021;-49
2022/03/18 03:50:49;;;;;;;24.47;9.90;;;;;;;11.16;92.78;103886.88;5084334;28;20041;-47
2022/03/18 03:53:14;;;;;;;20.50;9.87;;;;;;;11.13;93.22;103900.50;5082932;28;20064;-49
2022/03/18 03:55:40;;;;;;;23.90;11.10;;;;;;;11.17;92.63;103899.28;5091103;28;20028;-50
2022/03/18 03:58:07;;;;;;;20.35;11.07;;;;;;;11.30;91.16;103904.50;5075470;28;20040;-49
2022/03/18 04:00:36;;;;;;;19.83;11.03;;;;;;;11.30;89.01;103905.34;5082523;28;20032;-48
2022/03/18 04:03:04;;;;;;;19.70;10.85;;;;;;;11.11;90.88;103903.31;5084742;28;20266;-49
2022/03/18 04:05:31;;;;;;;21.95;11.00;;;;;;;11.00;92.49;103903.31;5090302;28;20036;-49
2022/03/18 04:07:56;;;;;;;24.27;12.05;;;;;;;11.19;89.98;103902.69;5078582;28;20025;-52
2022/03/18 04:10:22;;;;;;;21.40;12.03;;;;;;;11.23;89.09;103909.50;5090213;28;20051;-48
2022/03/18 04:12:47;;;;;;;23.43;11.00;;;;;;;11.10;90.33;103903.44;5084359;28;20047;-47
2022/03/18 04:15:14;;;;;;;25.87;11.37;;;;;;;11.07;90.83;103906.34;5082593;28;20036;-53
2022/03/18 04:17:43;;;;;;;19.80;11.20;;;;;;;11.13;89.64;103903.19;5091236;28;20033;-49
2022/03/18 04:20:14;;;;;;;26.60;10.77;;;;;;;11.04;90.02;103908.28;5061985;28;20024;-48
2022/03/18 04:22:40;;;;;;;26.90;11.77;;;;;;;11.37;86.57;103915.56;5087233;28;20055;-49
2022/03/18 04:25:07;;;;;;;21.03;11.30;;;;;;;11.39;85.57;103908.25;5086597;28;20102;-51
2022/03/18 04:27:33;;;;;;;24.23;12.13;;;;;;;11.39;84.93;103908.25;5079888;28;20033;-49
2022/03/18 04:29:59;;;;;;;21.50;11.15;;;;;;;11.37;84.20;103912.88;5091356;28;20095;-52
2022/03/18 04:32:24;;;;;;;23.60;12.03;;;;;;;11.20;86.34;103912.44;5080594;28;20055;-48
2022/03/18 04:34:50;;;;;;;29.40;12.97;;;;;;;11.19;86.49;103908.03;5082302;28;20285;-48
2022/03/18 04:37:15;;;;;;;27.67;11.60;;;;;;;11.11;87.66;103908.66;5092487;28;20056;-50
2022/03/18 04:39:41;;;;;;;17.80;9.13;;;;;;;11.11;89.69;103918.53;5078619;28;20090;-47
2022/03/18 04:42:07;;;;;;;22.95;11.38;;;;;;;11.04;91.45;103921.69;5091156;28;20049;-51
2022/03/18 04:44:33;;;;;;;20.33;11.23;;;;;;;11.02;93.98;103926.31;5081454;28;20037;-48
2022/03/18 04:46:58;;;;;;;23.73;12.17;;;;;;;10.99;95.99;103926.56;5084402;28;20064;-49
2022/03/18 04:49:24;;;;;;;25.07;13.13;;;;;;;10.97;97.81;103927.69;5088443;28;20055;-46
2022/03/18 04:51:49;;;;;;;23.90;11.80;;;;;;;11.03;97.02;103928.03;5076812;28;20033;-50
2022/03/18 04:54:14;;;;;;;27.73;13.30;;;;;;;11.05;97.27;103942.13;5090491;28;20270;-48
2022/03/18 04:59:24;;;;;;;19.38;11.52;;;;;;;10.83;100.00;103939.44;5080896;28;20043;-49
2022/03/18 05:01:50;;;;;;;20.07;11.53;;;;;;;10.81;100.00;103938.72;5090846;28;20037;-51
2022/03/18 05:04:15;;;;;;;32.23;12.13;;;;;;;10.93;98.30;103948.47;5078420;28;20055;-50
2022/03/18 05:06:41;;;;;;;26.00;12.60;;;;;;;10.85;98.82;103953.59;5086716;28;20055;-49
2022/03/18 05:09:06;;;;;;;21.60;11.70;;;;;;;10.86;100.00;103961.50;5085505;28;20276;-50
2022/03/18 05:11:32;;;;;;;24.48;12.18;;;;;;;10.82;100.00;103961.84;5079574;28;20116;-50
2022/03/18 05:13:59;;;;;;;25.27;12.00;;;;;;;10.83;100.00;103966.22;5090905;28;20036;-52
2022/03/18 05:16:25;;;;;;;27.88;11.80;;;;;;;10.76;100.00;103958.69;5080118;28;20039;-51
2022/03/18 05:18:51;;;;;;;27.50;10.98;;;;;;;10.73;100.00;103956.25;5085231;28;20052;-48
2022/03/18 05:21:18;;;;;;;23.58;11.20;;;;;;;10.69;100.00;103960.16;5085765;28;20048;-49
2022/03/18 05:23:43;;;;;;;21.30;10.68;;;;;;;10.79;100.00;103956.75;5077893;28;20040;-51
2022/03/18 05:26:09;;;;;;;22.67;10.80;;;;;;;10.78;100.00;103947.00;5090841;28;20033;-52
2022/03/18 05:28:36;;;;;;;21.40;10.30;;;;;;;10.71;100.00;103950.16;5083545;28;20031;-49
2022/03/18 05:31:02;;;;;;;23.90;9.35;;;;;;;10.69;100.00;103948.56;5087738;28;20037;-50
2022/03/18 05:33:27;;;;;;;20.17;9.07;;;;;;;10.83;100.00;103960.88;5092266;28;20033;-51
2022/03/18 05:35:52;;;;;;;23.67;9.27;;;;;;;10.88;100.00;103950.69;5081671;28;20068;-50
2022/03/18 05:38:18;;;;;;;17.40;8.00;;;;;;;10.73;100.00;103960.78;5093964;28;20044;-49
2022/03/18 05:40:44;;;;;;;13.90;7.65;;;;;;;10.69;100.00;103962.81;5086183;28;20511;-51
2022/03/18 05:43:09;;;;;;;14.47;8.47;;;;;;;10.79;100.00;103968.31;5086570;28;20041;-50
2022/03/18 05:45:35;;;;;;;16.90;9.00;;;;;;;10.89;100.00;103968.44;5093168;28;20042;-49
2022/03/18 05:48:00;;;;;;;19.50;10.40;;;;;;;10.89;100.00;103973.81;5079461;28;20280;-46
2022/03/18 05:50:26;;;;;;;21.90;9.80;;;;;;;10.91;100.00;103985.25;5083226;28;20032;-50
2022/03/18 05:52:52;;;;;;;;;;;;;;;10.83;100.00;103993.88;5082312;28;20040;-46
2022/03/18 05:55:18;;;;;;;18.43;9.00;;;;;;;10.74;100.00;103994.59;5085282;28;19935;-47
2022/03/18 05:57:45;;;;;;;16.88;9.48;;;;;;;10.78;100.00;103989.84;5094144;28;20250;-49
2022/03/18 06:00:12;;;;;;;19.93;8.30;;;;;;;10.83;100.00;104006.38;5081193;28;20057;-54
2022/03/18 06:02:41;;;;;;;16.27;8.45;;;;;;;10.94;100.00;103997.50;5090385;28;20044;-48
2022/03/18 06:05:08;;;;;;;15.88;8.63;;;;;;;10.88;100.00;103997.03;5088813;28;20096;-48
2022/03/18 06:07:36;;;;;;;15.75;8.88;;;;;;;10.76;100.00;104001.50;5083114;28;20087;-48
2022/03/18 06:12:46;;;;;;;16.42;8.18;;;;;;;10.75;100.00;104004.34;5085741;28;20032;-48
2022/03/18 06:15:12;;;;;;;18.45;8.32;;;;;;;10.75;100.00;104009.69;5085989;28;20033;-51
2022/03/18 06:17:38;;;;;;;23.80;8.47;;;;;;;10.92;100.00;104012.84;5092660;28;20071;-48
2022/03/18 06:20:04;;;;;;;17.57;9.00;;;;;;;10.98;100.00;104018.59;5080129;28;20037;-49
2022/03/18 06:22:29;;;;;;;19.58;8.57;;;;;;;11.13;100.00;104029.91;5090213;28;20053;-51
2022/03/18 06:24:56;;;;;;;17.55;8.60;;;;;;;11.09;100.00;104035.66;5085593;28;20036;-52
2022/03/18 06:27:21;;;;;;;17.07;9.80;;;;;;;11.17;100.00;104039.41;5083559;28;20096;-50
2022/03/18 06:29:47;;;;;;;18.77;9.70;;;;;;;11.15;100.00;104032.50;5092631;28;20043;-51
2022/03/18 06:32:12;;;;;;;16.20;9.48;;;;;;;11.15;100.00;104036.00;5079117;28;20032;-46
2022/03/18 06:34:38;;;;;;;21.07;10.90;;;;;;;10.98;100.00;104031.97;5088301;28;20037;-49
2022/03/18 06:37:04;;;;;;;16.80;8.48;;;;;;;11.05;100.00;104035.03;5086422;28;20040;-50
2022/03/18 06:39:29;;;;;;;23.50;11.35;;;;;;;10.99;100.00;104036.38;5081715;28;20043;-49
2022/03/18 06:41:56;;;;;;;23.08;11.77;;;;;;;11.11;100.00;104042.59;5092471;28;20044;-52
2022/03/18 06:44:21;;;;;;;20.98;11.65;;;;;;;11.22;100.00;104046.25;5080533;28;20106;-49
2022/03/18 06:46:47;;;;;;;24.50;11.67;;;;;;;11.30;100.00;104050.03;5087889;28;20041;-49
2022/03/18 06:49:13;;;;;;;17.07;9.80;;;;;;;11.32;100.00;104058.81;5087332;28;20106;-50
2022/03/18 06:51:39;;;;;;;26.05;12.38;;;;;;;11.39;100.00;104056.47;5080625;28;20109;-49
2022/03/18 06:54:05;;;;;;;26.40;13.40;;;;;;;11.40;100.00;104057.34;5091044;28;20111;-48
2022/03/18 06:56:30;;;;;;;28.83;12.30;;;;;;;11.43;100.00;104065.13;5081187;28;20059;-50
2022/03/18 06:58:56;;;;;;;26.20;13.47;;;;;;;11.53;100.00;104060.72;5086406;28;20289;-51
2022/03/18 07:01:22;;;;;;;;;;;;;;;11.58;100.00;104063.06;5088913;28;20044;-52
2022/03/18 07:03:49;;;;;;;26.15;13.15;;;;;;;11.52;100.00;104068.91;5079056;28;19913;-48
2022/03/18 07:06:15;;;;;;;;;;;;;;;11.65;100.00;104069.66;5062777;28;20097;-51
2022/03/18 07:08:41;;;;;;;27.33;13.23;;;;;;;11.71;100.00;104071.84;5088335;28;19912;-50
2022/03/18 07:11:07;;;;;;;23.33;12.02;;;;;;;12.07;100.00;104074.34;5085920;28;20033;-52
2022/03/18 07:13:33;;;;;;;19.45;10.25;;;;;;;12.12;98.70;104088.25;5081097;28;20072;-49
2022/03/18 07:17:54;;;;;;;24.77;11.60;;;;;;;12.26;94.67;104100.50;5091864;28;20130;-50
2022/03/18 07:18:44;;;;;;;27.40;11.35;;;;;;;12.16;95.98;104104.94;5082530;28;20040;-50
2022/03/18 07:21:11;;;;;;;21.13;11.00;;;;;;;12.27;97.42;104098.69;5048876;28;1014126;-49
2022/03/18 07:23:36;;;;;;;25.37;11.57;;;;;;;12.36;93.42;104100.59;5090828;28;20058;-53
2022/03/18 07:26:01;;;;;;;20.40;10.40;;;;;;;12.30;91.19;104111.84;5078669;28;20067;-51
2022/03/18 07:28:27;;;;;;;28.40;10.77;;;;;;;12.41;91.12;104114.50;5090180;28;20266;-50
2022/03/18 07:30:52;;;;;;;26.60;10.67;;;;;;;12.44;87.83;104108.88;5084411;28;20055;-48
2022/03/18 07:33:18;;;;;;;21.50;10.70;;;;;;;12.44;87.94;104108.88;5084027;28;20041;-50
2022/03/18 07:35:43;;;;;;;29.40;10.63;;;;;;;12.58;86.87;104109.56;5091270;28;20060;-51
2022/03/18 07:38:09;;;;;;;22.20;9.90;;;;;;;12.72;85.52;104117.31;5079070;28;20037;-53
2022/03/18 07:40:38;;;;;;;25.00;10.50;;;;;;;12.90;83.33;104114.03;5082846;28;20055;-48
2022/03/18 07:43:05;;;;;;;26.95;10.02;;;;;;;12.98;82.89;104116.06;5077130;28;20056;-50
2022/03/18 07:45:32;;;;;;;20.15;9.80;;;;;;;13.13;81.08;104108.53;5076642;28;20143;-51
2022/03/18 07:48:00;;;;;;;21.85;11.68;;;;;;;13.20;80.68;104115.94;5076849;28;20043;-50
2022/03/18 07:50:29;;;;;;;20.60;12.27;;;;;;;13.07;81.36;104114.44;5076666;28;20041;-49
2022/03/18 07:53:00;;;;;;;23.75;12.27;;;;;;;13.24;81.01;104121.91;5076944;28;20029;-49
2022/03/18 07:55:27;;;;;;;20.95;11.50;;;;;;;13.36;80.97;104119.13;5076737;28;20043;-52
2022/03/18 07:57:53;;;;;;;21.25;11.55;;;;;;;13.34;78.41;104122.78;5076974;28;20116;-51
2022/03/18 08:00:21;;;;;;;25.23;12.52;;;;;;;13.46;77.21;104126.28;5078018;28;20033;-48
2022/03/18 08:02:48;;;;;;;19.35;10.70;;;;;;;13.53;76.78;104131.13;5076873;28;20063;-50
2022/03/18 08:05:14;;;;;;;26.08;10.90;;;;;;;13.80;74.23;104137.75;5076340;28;20044;-48
2022/03/18 08:07:41;;;;;;;24.95;10.52;;;;;;;13.89;71.93;104131.53;5089901;28;20028;-46
2022/03/18 08:10:08;;;;;;;25.33;10.80;;;;;;;14.01;70.95;104146.59;5078550;28;20036;-50
2022/03/18 08:12:35;;;;;;;28.42;10.48;;;;;;;14.05;70.96;104149.84;5089291;28;20049;-48
2022/03/18 08:15:08;;;;;;;28.40;12.63;;;;;;;14.15;71.07;104161.50;5084641;28;20032;-52
2022/03/18 08:17:33;;;;;;;23.98;10.98;;;;;;;14.25;70.81;104158.84;5081089;28;20044;-48
2022/03/18 08:19:59;;;;;;;26.77;11.57;;;;;;;14.36;71.04;104157.00;5091589;28;20072;-49
2022/03/18 08:22:25;;;;;;;24.93;11.87;;;;;;;14.52;70.02;104153.75;5079362;28;20037;-49
2022/03/18 08:24:52;;;;;;;26.85;10.60;;;;;;;14.69;68.67;104169.22;5086991;28;20032;-52
2022/03/18 08:27:19;;;;;;;24.40;11.20;;;;;;;14.73;68.08;104167.13;5086161;28;20040;-46
2022/03/18 08:29:48;;;;;;;22.05;10.38;;;;;;;14.83;66.98;104183.31;5078594;28;20047;-49
2022/03/18 08:32:17;;;;;;;30.70;10.85;;;;;;;14.91;67.16;104188.81;5091226;28;20044;-53
2022/03/18 08:34:43;;;;;;;18.25;9.18;;;;;;;14.90;66.78;104192.50;5074461;28;20039;-47
2022/03/18 08:37:10;;;;;;;21.38;9.90;;;;;;;15.25;65.36;104193.78;5080039;28;20037;-50
2022/03/18 08:39:41;;;;;;;22.25;8.88;;;;;;;15.48;63.35;104201.53;5088673;28;20048;-50
2022/03/18 08:42:07;;;;;;;20.95;9.60;;;;;;;15.57;63.14;104202.47;5077844;28;20124;-49
2022/03/18 08:44:33;;;;;;;17.77;7.80;;;;;;;15.77;61.21;104205.97;5089194;28;20041;-53
2022/03/18 08:46:59;;;;;;;22.02;7.78;;;;;;;15.94;59.16;104200.81;5083754;28;20830;-48
2022/03/18 08:49:25;;;;;;;22.13;8.73;;;;;;;16.16;57.66;104213.94;5081098;28;20033;-50
2022/03/18 08:51:51;;;;;;;20.00;8.60;;;;;;;16.51;55.91;104221.38;5087871;28;20040;-50
2022/03/18 08:54:21;;;;;;;20.57;8.87;;;;;;;16.71;54.52;104212.13;5074452;28;20036;-50
2022/03/18 08:56:48;;;;;;;14.40;7.60;;;;;;;17.27;53.10;104222.75;5072333;28;20021;-51
2022/03/18 08:59:13;;;;;;;;;;;;;;;17.84;51.47;104229.56;5074977;28;20297;-51
2022/03/18 09:01:39;;;;;;;16.33;7.40;;;;;;;18.40;49.60;104230.97;5074521;28;19912;-52
2022/03/18 09:04:05;;;;;;;17.73;6.97;;;;;;;19.12;46.75;104234.97;5075585;28;20056;-48
2022/03/18 09:06:31;;;;;;;22.30;6.68;;;;;;;19.73;44.26;104240.81;5074745;28;20092;-52
2022/03/18 09:09:03;;;;;;;17.50;6.07;;;;;;;20.25;40.41;104240.44;5074853;28;20029;-51
2022/03/18 09:11:29;;;;;;;20.00;6.13;;;;;;;20.87;38.67;104236.00;5072352;28;20028;-51
2022/03/18 09:13:55;;;;;;;16.20;5.03;;;;;;;21.73;36.10;104237.56;5074131;28;20344;-50
2022/03/18 09:16:20;;;;;;;10.77;4.60;;;;;;;22.19;33.23;104233.75;5075278;28;20083;-55
2022/03/18 09:18:46;;;;;;;27.50;5.28;;;;;;;22.74;32.39;104236.03;5073739;28;20029;-50
2022/03/18 09:21:11;;;;;;;9.63;4.30;;;;;;;23.43;30.91;104241.84;5074311;28;20052;-51
2022/03/18 09:23:37;;;;;;;19.00;4.63;;;;;;;23.83;30.02;104255.75;5088211;28;20056;-53
2022/03/18 09:26:03;;;;;;;9.77;3.95;;;;;;;24.41;28.58;104250.94;5075249;28;20124;-51
2022/03/18 09:28:28;;;;;;;10.52;3.70;;;;;;;24.98;27.68;104245.97;5072910;28;20075;-50
2022/03/18 09:30:54;;;;;;;12.18;4.10;;;;;;;25.46;26.45;104254.97;5074112;28;20033;-50
2022/03/18 09:33:20;;;;;;;;;;;;;;;25.83;26.37;104252.53;5079164;28;20044;-53
2022/03/18 09:35:45;;;;;;;11.07;3.50;;;;;;;26.09;25.52;104258.16;5089268;28;19925;-55
2022/03/18 09:38:11;;;;;;;9.50;3.92;;;;;;;26.32;25.21;104263.13;5074367;28;20032;-50
2022/03/18 09:40:40;;;;;;;;;;;;;;;26.28;25.54;104270.09;5072009;28;20043;-51
2022/03/18 09:43:07;;;;;;;10.03;3.70;;;;;;;26.85;24.39;104269.34;5074400;28;19913;-49
2022/03/18 09:45:38;;;;;;;12.03;4.00;;;;;;;26.96;24.78;104276.00;5075410;28;20048;-53
2022/03/18 09:48:07;;;;;;;12.70;4.17;;;;;;;27.48;24.31;104279.28;5074579;28;20029;-51
2022/03/18 09:50:33;;;;;;;12.17;3.93;;;;;;;28.07;23.70;104282.69;5088688;28;20032;-50
2022/03/18 09:52:59;;;;;;;8.50;3.20;;;;;;;28.40;22.42;104300.66;5082530;28;20032;-51
2022/03/18 09:55:25;;;;;;;;;;;;;;;28.44;22.04;104299.09;5082033;28;20033;-51
2022/03/18 09:57:54;;;;;;;11.53;4.23;;;;;;;28.44;23.11;104296.34;5089236;28;19979;-53
2022/03/18 10:00:19;;;;;;;21.43;4.93;;;;;;;28.13;23.69;104296.31;5077170;28;20024;-47
2022/03/18 10:02:44;;;;;;;;;;;;;;;28.63;23.45;104303.47;5087555;28;20068;-50
2022/03/18 10:05:13;;;;;;;11.10;4.07;;;;;;;28.88;23.13;104304.41;5083944;28;19916;-50
2022/03/18 10:07:39;;;;;;;24.77;4.43;;;;;;;29.39;22.55;104306.69;5078497;28;20029;-49
2022/03/18 10:10:15;;;;;;;15.50;4.80;;;;;;;29.32;22.74;104310.41;5089872;28;20044;-50
2022/03/18 10:12:44;;;;;;;16.75;3.80;;;;;;;28.94;23.07;104306.19;5078958;28;20060;-49
2022/03/18 10:15:16;;;;;;;10.98;4.25;;;;;;;29.14;23.00;104307.78;5085942;28;20064;-47
2022/03/18 10:17:48;;;;;;;9.85;3.65;;;;;;;29.62;22.42;104300.31;5090838;28;20037;-54
2022/03/18 10:20:28;;;;;;;13.52;4.13;;;;;;;29.79;22.42;104308.72;5079605;28;20040;-49
2022/03/18 10:22:55;;;;;;;11.45;3.67;;;;;;;30.66;21.68;104307.91;5088022;28;20044;-54
2022/03/18 10:25:50;;;;;;;17.27;4.10;;;;;;;30.83;21.39;104307.91;5087397;28;20021;-53
2022/03/18 10:28:44;;;;;;;11.40;3.58;;;;;;;31.18;20.76;104312.34;5079380;28;20059;-52
2022/03/18 10:31:22;;;;;;;13.52;3.97;;;;;;;31.02;21.22;104300.19;5083334;28;20123;-53
2022/03/18 10:39:22;;;;;;;12.18;3.38;;;;;;;31.94;20.51;104310.88;5087175;28;20032;-53
2022/03/18 10:41:48;;;;;;;10.98;3.60;;;;;;;32.23;20.22;104312.56;5076761;28;20033;-48
2022/03/18 10:44:15;;;;;;;11.63;3.92;;;;;;;32.35;19.53;104321.59;5092619;28;20058;-51
2022/03/18 10:46:41;;;;;;;6.32;2.75;;;;;;;32.47;19.59;104315.91;5082139;28;20041;-54
2022/03/18 10:49:07;;;;;;;10.48;3.17;;;;;;;32.48;19.34;104317.56;5086642;28;20048;-50
2022/03/18 10:51:34;;;;;;;10.73;2.88;;;;;;;32.60;19.68;104318.22;5088638;28;20048;-54
2022/03/18 10:54:00;;;;;;;8.48;2.88;;;;;;;32.89;19.00;104330.97;5078880;28;20047;-48
2022/03/18 10:56:26;;;;;;;8.27;3.58;;;;;;;33.14;19.23;104326.69;5091417;28;20033;-52
2022/03/18 10:58:51;;;;;;;11.48;3.60;;;;;;;33.31;19.08;104332.91;5081912;28;20032;-52
2022/03/18 11:01:19;;;;;;;17.88;8.43;;;;;;;33.82;18.83;104331.50;5084666;28;20041;-50
2022/03/18 11:03:46;;;;;;;8.48;2.85;;;;;;;33.58;19.12;104331.97;5090368;28;20029;-52
2022/03/18 11:06:16;;;;;;;11.63;3.22;;;;;;;33.94;18.18;104333.22;5076240;28;20037;-54
2022/03/18 11:08:45;;;;;;;12.05;3.13;;;;;;;34.37;18.00;104322.78;5081209;28;20092;-52
2022/03/18 11:11:18;;;;;;;40.88;5.38;;;;;;;34.60;18.36;104329.75;5085601;28;20105;-52
2022/03/18 11:14:03;;;;;;;11.27;3.35;;;;;;;34.79;17.94;104315.31;5089967;28;20104;-52
2022/03/18 11:16:38;;;;;;;15.80;3.67;;;;;;;35.06;17.82;104318.88;5063542;28;20033;-52
2022/03/18 11:19:12;;;;;;;8.85;3.83;;;;;;;35.75;17.12;104322.00;5086237;28;20282;-51
2022/03/18 11:21:39;;;;;;;7.55;2.65;;;;;;;35.79;17.23;104323.13;5088743;28;20060;-51
2022/03/18 11:24:11;;;;;;;14.20;3.10;;;;;;;36.11;16.82;104319.06;5078352;28;20065;-50
2022/03/18 11:26:48;;;;;;;12.00;3.13;;;;;;;36.25;16.82;104310.06;5088235;28;20045;-51
2022/03/18 11:29:19;;;;;;;10.55;3.10;;;;;;;36.47;16.50;104314.34;5084304;28;20035;-53
2022/03/18 11:32:09;;;;;;;10.23;2.92;;;;;;;36.66;16.44;104308.91;5080412;28;20044;-54
2022/03/18 11:34:45;;;;;;;12.68;3.25;;;;;;;36.96;16.34;104309.69;5072746;28;20051;-55